Time;durP1;ratioP1;P1;durP2;ratioP2;P2;SDS_P1;SDS_P2;PMS_P1;PMS_P2;Temp;Humidity;BMP_temperature;BMP_pressure;BME280_temperature;BME280_humidity;BME280_pressure;Samples;Min_cycle;Max_cycle;Signal;HPM_P1;HPM_P2
2022/06/21 00:01:44;;;;;;;8.05;3.70;;;15.40;99.90;;;;;;5076599;28;20338;-69
2022/06/21 00:04:10;;;;;;;7.78;3.65;;;15.30;99.90;;;;;;5076040;28;20037;-69
2022/06/21 00:06:36;;;;;;;8.13;3.50;;;15.30;99.90;;;;;;5076261;28;20388;-69
2022/06/21 00:09:02;;;;;;;9.52;3.85;;;15.30;99.90;;;;;;5077434;28;20044;-69
2022/06/21 00:11:34;;;;;;;8.35;3.70;;;15.30;99.90;;;;;;5077051;28;20024;-70
2022/06/21 00:14:00;;;;;;;7.25;3.80;;;15.20;99.90;;;;;;5076312;28;20036;-69
2022/06/21 00:16:29;;;;;;;11.13;4.53;;;15.10;99.90;;;;;;5076994;28;20028;-69
2022/06/21 00:18:55;;;;;;;11.52;4.45;;;15.10;99.90;;;;;;5076922;28;20327;-69
2022/06/21 00:21:22;;;;;;;12.82;4.57;;;15.00;99.90;;;;;;5076859;28;20119;-69
2022/06/21 00:23:50;;;;;;;13.85;4.60;;;15.00;99.90;;;;;;5076713;28;20032;-69
2022/06/21 00:26:17;;;;;;;13.57;4.93;;;15.10;99.90;;;;;;5076050;28;20128;-69
2022/06/21 00:28:43;;;;;;;11.68;4.50;;;15.10;99.90;;;;;;5076719;28;20107;-69
2022/06/21 00:31:25;;;;;;;8.43;4.65;;;15.00;99.90;;;;;;5076021;28;20096;-69
2022/06/21 00:33:51;;;;;;;9.25;4.50;;;14.90;99.90;;;;;;5076632;28;20051;-69
2022/06/21 00:36:23;;;;;;;11.75;4.88;;;14.90;99.90;;;;;;5076668;28;20028;-69
2022/06/21 00:38:51;;;;;;;10.95;5.18;;;14.80;99.90;;;;;;5076608;28;20127;-69
2022/06/21 00:41:20;;;;;;;11.68;4.80;;;14.80;99.90;;;;;;5076597;28;20032;-69
2022/06/21 00:43:52;;;;;;;8.95;4.97;;;14.70;99.90;;;;;;5076347;28;20106;-69
2022/06/21 00:46:41;;;;;;;11.98;5.20;;;14.70;99.90;;;;;;5076506;28;20050;-69
2022/06/21 00:49:24;;;;;;;13.10;5.05;;;14.60;99.90;;;;;;5070398;28;20409;-69
2022/06/21 00:51:57;;;;;;;;;;;14.60;99.90;;;;;;5081118;28;20032;-69
2022/06/21 00:54:44;;;;;;;7.85;4.45;;;14.50;99.90;;;;;;5079694;28;19912;-69
2022/06/21 00:57:18;;;;;;;11.88;5.20;;;14.50;99.90;;;;;;5080231;28;20025;-69
2022/06/21 00:59:49;;;;;;;8.65;4.72;;;14.50;99.90;;;;;;5080685;28;20033;-69
2022/06/21 01:02:23;;;;;;;11.52;4.35;;;14.40;99.90;;;;;;5080416;28;20299;-69
2022/06/21 01:04:54;;;;;;;12.73;4.90;;;14.40;99.90;;;;;;5080399;28;20040;-70
2022/06/21 01:07:20;;;;;;;9.48;4.57;;;14.40;99.90;;;;;;5080026;28;20020;-69
2022/06/21 01:09:52;;;;;;;8.18;4.10;;;14.30;99.90;;;;;;5079997;28;20112;-69
2022/06/21 01:12:26;;;;;;;12.27;5.13;;;14.40;99.90;;;;;;5080195;28;20032;-70
2022/06/21 01:15:13;;;;;;;10.90;4.75;;;14.30;99.90;;;;;;5080008;28;20036;-69
2022/06/21 01:17:40;;;;;;;9.73;4.78;;;14.30;99.90;;;;;;5079753;28;20128;-69
2022/06/21 01:20:14;;;;;;;10.50;5.07;;;14.30;99.90;;;;;;5079108;28;20028;-69
2022/06/21 01:23:13;;;;;;;12.35;4.80;;;14.20;99.90;;;;;;5079746;28;20075;-69
2022/06/21 01:26:01;;;;;;;11.25;5.05;;;14.20;99.90;;;;;;5079003;28;20043;-69
2022/06/21 01:28:27;;;;;;;9.23;4.75;;;14.20;99.90;;;;;;5078950;28;20025;-69
2022/06/21 01:30:56;;;;;;;9.32;4.40;;;14.30;99.90;;;;;;5079566;28;20269;-70
2022/06/21 01:33:32;;;;;;;13.27;5.35;;;14.30;99.90;;;;;;5079965;28;20362;-69
2022/06/21 01:36:01;;;;;;;12.55;5.07;;;14.30;99.90;;;;;;5079795;28;20178;-70
2022/06/21 01:38:34;;;;;;;12.38;5.15;;;14.20;99.90;;;;;;5079358;28;20047;-70
2022/06/21 01:41:05;;;;;;;11.25;5.13;;;14.10;99.90;;;;;;5078643;28;20017;-69
2022/06/21 01:43:33;;;;;;;12.52;5.40;;;14.10;99.90;;;;;;5078580;28;20024;-69
2022/06/21 01:46:07;;;;;;;13.88;5.10;;;14.10;99.90;;;;;;5079269;28;20052;-70
2022/06/21 01:48:40;;;;;;;10.68;5.07;;;14.10;99.90;;;;;;5079447;28;20328;-69
2022/06/21 01:51:10;;;;;;;14.82;6.28;;;13.90;99.90;;;;;;5079306;28;20036;-69
2022/06/21 01:53:37;;;;;;;12.48;5.90;;;13.90;99.90;;;;;;5079397;28;20127;-69
2022/06/21 01:56:11;;;;;;;12.15;5.90;;;14.00;99.90;;;;;;5078403;28;20115;-70
2022/06/21 01:58:43;;;;;;;11.50;6.30;;;13.90;99.90;;;;;;5079156;28;20024;-69
2022/06/21 02:01:27;;;;;;;14.48;6.68;;;13.90;99.90;;;;;;5079001;28;20033;-69
2022/06/21 02:03:58;;;;;;;14.57;6.45;;;13.80;99.90;;;;;;5078294;28;20108;-69
2022/06/21 02:06:29;;;;;;;15.90;7.60;;;13.80;99.90;;;;;;5078979;28;20033;-70
2022/06/21 02:09:08;;;;;;;16.55;6.47;;;13.70;99.90;;;;;;5079120;28;20043;-70
2022/06/21 02:11:50;;;;;;;16.23;7.53;;;13.80;99.90;;;;;;5078963;28;20055;-70
2022/06/21 02:14:29;;;;;;;15.70;7.60;;;13.80;99.90;;;;;;5079147;28;20028;-69
2022/06/21 02:17:20;;;;;;;15.02;6.97;;;13.80;99.90;;;;;;5078693;28;20132;-70
2022/06/21 02:20:00;;;;;;;16.52;7.00;;;13.80;99.90;;;;;;5078799;28;20412;-70
2022/06/21 02:22:28;;;;;;;15.80;7.03;;;13.70;99.90;;;;;;5078662;28;20384;-70
2022/06/21 02:24:54;;;;;;;17.52;6.90;;;13.70;99.90;;;;;;5077840;28;20351;-69
2022/06/21 02:27:28;;;;;;;15.55;7.05;;;13.60;99.90;;;;;;5078638;28;20037;-69
2022/06/21 02:29:56;;;;;;;13.60;6.45;;;13.70;99.90;;;;;;5078571;28;20048;-69
2022/06/21 02:32:37;;;;;;;14.73;6.90;;;13.80;99.90;;;;;;5078698;28;20094;-69
2022/06/21 02:35:38;;;;;;;15.13;7.25;;;13.80;99.90;;;;;;5077667;28;20288;-69
2022/06/21 02:38:09;;;;;;;13.70;6.82;;;13.80;99.90;;;;;;5078254;28;20297;-69
2022/06/21 02:40:40;;;;;;;11.55;7.28;;;13.70;99.90;;;;;;5078419;28;20262;-69
2022/06/21 02:43:14;;;;;;;10.50;6.47;;;13.70;99.90;;;;;;5078263;28;20304;-69
2022/06/21 02:45:52;;;;;;;10.95;6.35;;;13.60;99.90;;;;;;5077399;28;20292;-69
2022/06/21 02:48:23;;;;;;;11.90;6.75;;;13.40;99.90;;;;;;5077357;28;20024;-69
2022/06/21 02:50:54;;;;;;;11.13;7.07;;;13.40;99.90;;;;;;5078621;28;20028;-69
2022/06/21 02:53:23;;;;;;;11.43;7.00;;;13.30;99.90;;;;;;5077306;28;20036;-69
2022/06/21 02:55:58;;;;;;;13.70;7.90;;;13.30;99.90;;;;;;5077874;28;20074;-69
2022/06/21 02:58:30;;;;;;;8.57;7.18;;;13.20;99.90;;;;;;5078123;28;20043;-69
2022/06/21 03:00:58;;;;;;;13.35;7.53;;;13.20;99.90;;;;;;5077945;28;20051;-69
2022/06/21 03:03:27;;;;;;;14.18;7.65;;;13.20;99.90;;;;;;5077777;28;20099;-69
2022/06/21 03:05:57;;;;;;;11.55;8.20;;;13.20;99.90;;;;;;5077820;28;20102;-69
2022/06/21 03:08:24;;;;;;;17.58;8.52;;;13.20;99.90;;;;;;5077704;28;20035;-69
2022/06/21 03:10:51;;;;;;;10.50;8.00;;;13.20;99.90;;;;;;5078419;28;20032;-70
2022/06/21 03:13:24;;;;;;;14.77;8.70;;;13.20;99.90;;;;;;5076586;28;20037;-70
2022/06/21 03:15:52;;;;;;;;;;;13.20;99.90;;;;;;5077951;28;20109;-69
2022/06/21 03:18:26;;;;;;;16.20;9.07;;;13.20;99.90;;;;;;5077265;28;19978;-69
2022/06/21 03:20:53;;;;;;;12.05;8.13;;;13.20;99.90;;;;;;5077940;28;20445;-70
2022/06/21 03:23:20;;;;;;;12.38;8.73;;;12.90;99.90;;;;;;5076653;28;20047;-69
2022/06/21 03:25:48;;;;;;;15.23;8.65;;;13.00;99.90;;;;;;5076705;28;20055;-69
2022/06/21 03:28:20;;;;;;;13.00;8.63;;;13.00;99.90;;;;;;5077288;28;20024;-70
2022/06/21 03:30:47;;;;;;;16.85;9.57;;;13.00;99.90;;;;;;5077446;28;20090;-69
2022/06/21 03:33:13;;;;;;;13.15;9.18;;;13.00;99.90;;;;;;5077200;28;20043;-69
2022/06/21 03:35:39;;;;;;;12.43;9.20;;;13.00;99.90;;;;;;5060007;28;20037;-69
2022/06/21 03:38:04;;;;;;;16.40;9.80;;;12.90;99.90;;;;;;5077101;28;20416;-69
2022/06/21 03:43:23;;;;;;;11.98;9.77;;;13.00;99.90;;;;;;5076283;28;20040;-70
2022/06/21 03:45:52;;;;;;;13.48;9.55;;;13.00;99.90;;;;;;5077507;28;20032;-69
2022/06/21 03:48:35;;;;;;;13.90;9.88;;;13.20;99.90;;;;;;5077044;28;20054;-70
2022/06/21 03:51:08;;;;;;;18.05;9.63;;;13.30;99.90;;;;;;5077555;28;20442;-70
2022/06/21 03:53:41;;;;;;;20.00;9.43;;;13.30;99.90;;;;;;5077035;28;20340;-69
2022/06/21 03:56:30;;;;;;;14.73;9.20;;;13.40;99.90;;;;;;5076965;28;20029;-69
2022/06/21 03:59:08;;;;;;;15.15;9.15;;;13.20;99.90;;;;;;5076849;28;20033;-69
2022/06/21 04:01:51;;;;;;;13.07;9.38;;;13.20;99.90;;;;;;5076778;28;20051;-69
2022/06/21 04:04:31;;;;;;;15.80;9.30;;;13.10;99.90;;;;;;5076776;28;20025;-69
2022/06/21 04:07:19;;;;;;;12.65;9.48;;;13.20;99.90;;;;;;5076198;28;20068;-69
2022/06/21 04:10:16;;;;;;;16.83;9.52;;;13.10;99.90;;;;;;5077421;28;20388;-69
2022/06/21 04:12:51;;;;;;;15.20;8.95;;;13.10;99.90;;;;;;5071742;28;20407;-69
2022/06/21 04:15:47;;;;;;;14.98;8.50;;;13.10;99.90;;;;;;5076792;28;20041;-69
2022/06/21 04:18:13;;;;;;;13.25;9.25;;;13.10;99.90;;;;;;5076851;28;20039;-69
2022/06/21 04:20:54;;;;;;;20.05;9.43;;;13.20;99.90;;;;;;5076651;28;20029;-69
2022/06/21 04:23:30;;;;;;;17.05;9.52;;;13.20;99.90;;;;;;5076722;28;20035;-69
2022/06/21 04:26:14;;;;;;;14.23;10.40;;;13.20;99.90;;;;;;5080245;28;20037;-69
2022/06/21 04:28:46;;;;;;;15.57;9.40;;;13.30;99.90;;;;;;5081351;28;20031;-69
2022/06/21 04:31:30;;;;;;;15.67;9.83;;;13.20;99.90;;;;;;5080818;28;20339;-69
2022/06/21 04:34:07;;;;;;;15.13;9.57;;;13.40;99.90;;;;;;5081173;28;20127;-69
2022/06/21 04:36:38;;;;;;;17.55;10.23;;;13.40;99.90;;;;;;5080851;28;20101;-68
2022/06/21 04:39:53;;;;;;;18.92;9.95;;;13.40;99.90;;;;;;5079803;28;20048;-69
2022/06/21 04:42:34;;;;;;;18.08;9.73;;;13.40;99.90;;;;;;5048266;28;20419;-69
2022/06/21 04:45:06;;;;;;;13.88;9.02;;;13.40;99.90;;;;;;5079842;28;20412;-70
2022/06/21 04:47:46;;;;;;;19.38;9.65;;;13.50;99.90;;;;;;5080469;28;20390;-70
2022/06/21 04:50:36;;;;;;;12.77;8.52;;;13.50;99.90;;;;;;5080618;28;20029;-69
2022/06/21 04:53:10;;;;;;;15.80;9.05;;;13.50;99.90;;;;;;5080370;28;20424;-70
2022/06/21 04:56:00;;;;;;;14.95;8.90;;;13.70;99.90;;;;;;5079643;28;20028;-69
2022/06/21 04:58:26;;;;;;;13.45;8.95;;;13.80;99.90;;;;;;5079690;28;20477;-71
2022/06/21 05:00:53;;;;;;;14.85;8.90;;;14.10;99.90;;;;;;5079933;28;20048;-70
2022/06/21 05:03:30;;;;;;;12.75;8.85;;;13.70;99.90;;;;;;5080032;28;20266;-69
2022/06/21 05:05:56;;;;;;;10.73;8.57;;;13.60;99.90;;;;;;5079872;28;20123;-69
2022/06/21 05:08:24;;;;;;;15.10;8.85;;;13.70;99.90;;;;;;5080100;28;20363;-69
2022/06/21 05:10:54;;;;;;;15.45;9.27;;;13.80;99.90;;;;;;5079949;28;20058;-69
2022/06/21 05:13:40;;;;;;;12.55;8.23;;;14.00;99.90;;;;;;5079891;28;20024;-69
2022/06/21 05:16:17;;;;;;;11.27;8.30;;;14.30;99.90;;;;;;5079910;28;20029;-69
2022/06/21 05:18:47;;;;;;;13.43;8.70;;;14.40;99.90;;;;;;5080296;28;20039;-69
2022/06/21 05:21:18;;;;;;;13.50;8.23;;;14.40;99.90;;;;;;5080099;28;20384;-68
2022/06/21 05:23:44;;;;;;;14.88;8.57;;;14.40;99.90;;;;;;5062341;28;20028;-69
2022/06/21 05:26:19;;;;;;;18.23;7.95;;;14.50;99.90;;;;;;5079842;28;20262;-69
2022/06/21 05:28:51;;;;;;;12.93;8.57;;;14.70;99.90;;;;;;5062836;28;20025;-69
2022/06/21 05:31:24;;;;;;;11.65;8.10;;;14.70;99.90;;;;;;5080109;28;20031;-69
2022/06/21 05:34:04;;;;;;;11.52;7.82;;;14.70;99.90;;;;;;5079541;28;20024;-69
2022/06/21 05:36:32;;;;;;;15.45;8.15;;;14.90;99.90;;;;;;5078539;28;20036;-69
2022/06/21 05:39:07;;;;;;;11.85;7.47;;;14.90;99.90;;;;;;5079183;28;20034;-71
2022/06/21 05:41:43;;;;;;;12.10;7.55;;;15.10;99.90;;;;;;5079450;28;20041;-69
2022/06/21 05:44:12;;;;;;;14.63;7.57;;;15.10;99.90;;;;;;5078582;28;20021;-71
2022/06/21 05:46:44;;;;;;;11.88;7.30;;;15.30;99.90;;;;;;5079524;28;20323;-69
2022/06/21 05:49:21;;;;;;;11.48;7.22;;;15.30;99.90;;;;;;5062016;28;20033;-70
2022/06/21 05:51:48;;;;;;;12.55;7.35;;;15.40;99.90;;;;;;5079219;28;20447;-69
2022/06/21 05:54:17;;;;;;;9.98;7.10;;;15.40;99.90;;;;;;5079068;28;20052;-69
2022/06/21 05:56:44;;;;;;;9.82;6.13;;;15.50;99.90;;;;;;5078423;28;20028;-70
2022/06/21 05:59:17;;;;;;;10.45;6.40;;;15.60;99.90;;;;;;5079070;28;20297;-70
2022/06/21 06:01:59;;;;;;;11.93;6.70;;;15.70;99.90;;;;;;5078362;28;20119;-69
2022/06/21 06:04:32;;;;;;;14.40;6.33;;;15.70;99.90;;;;;;5061465;28;20043;-70
2022/06/21 06:07:00;;;;;;;12.00;7.03;;;15.90;99.90;;;;;;5078394;28;20498;-70
2022/06/21 06:09:33;;;;;;;8.98;6.55;;;16.20;99.90;;;;;;5078119;28;20028;-70
2022/06/21 06:12:03;;;;;;;9.45;7.03;;;16.40;99.90;;;;;;5078775;28;20033;-70
2022/06/21 06:14:32;;;;;;;10.30;6.68;;;16.60;99.90;;;;;;5078784;28;20102;-71
2022/06/21 06:17:00;;;;;;;11.77;6.85;;;16.60;99.90;;;;;;5078179;28;20029;-71
2022/06/21 06:19:43;;;;;;;10.63;6.60;;;16.50;99.90;;;;;;5061259;28;20020;-69
2022/06/21 06:22:12;;;;;;;;;;;16.40;99.90;;;;;;5078369;28;20036;-71
2022/06/21 06:24:51;;;;;;;11.65;5.35;;;16.50;99.90;;;;;;5078835;28;20015;-65
2022/06/21 06:27:35;;;;;;;7.97;6.35;;;16.80;99.90;;;;;;5078881;28;20097;-69
2022/06/21 06:30:06;;;;;;;13.00;6.75;;;17.20;99.90;;;;;;5078419;28;20024;-69
2022/06/21 06:32:53;;;;;;;11.90;7.00;;;17.10;99.90;;;;;;5078421;28;20029;-70
2022/06/21 06:35:23;;;;;;;11.60;7.43;;;17.20;99.90;;;;;;5078460;28;20175;-70
2022/06/21 06:37:49;;;;;;;10.75;6.60;;;17.30;99.90;;;;;;5077310;28;20080;-70
2022/06/21 06:40:39;;;;;;;14.73;6.95;;;17.30;99.90;;;;;;5077837;28;20258;-69
2022/06/21 06:43:15;;;;;;;11.20;6.85;;;17.50;99.90;;;;;;5078406;28;20039;-70
2022/06/21 06:45:43;;;;;;;14.07;6.47;;;17.50;99.90;;;;;;5078324;28;20372;-69
2022/06/21 06:48:23;;;;;;;10.10;6.80;;;17.50;99.90;;;;;;5077894;28;20099;-70
2022/06/21 06:50:56;;;;;;;9.93;6.22;;;17.50;99.90;;;;;;5078150;28;20403;-71
2022/06/21 06:53:29;;;;;;;;;;;17.50;99.90;;;;;;5078694;28;20384;-70
2022/06/21 06:56:10;;;;;;;9.23;6.10;;;17.70;99.90;;;;;;5077949;28;20296;-70
2022/06/21 06:58:46;;;;;;;8.85;6.00;;;17.60;99.90;;;;;;5078381;28;20086;-70
2022/06/21 07:01:17;;;;;;;13.27;6.40;;;17.60;99.90;;;;;;5077247;28;20060;-70
2022/06/21 07:03:48;;;;;;;11.43;6.22;;;17.80;99.90;;;;;;5078004;28;20105;-70
2022/06/21 07:06:33;;;;;;;11.70;6.25;;;17.80;99.90;;;;;;5077682;28;19912;-70
2022/06/21 07:09:04;;;;;;;11.07;6.32;;;17.80;99.90;;;;;;5077690;28;20025;-70
2022/06/21 07:11:45;;;;;;;11.77;6.00;;;17.80;99.90;;;;;;5078011;28;20028;-71
2022/06/21 07:14:29;;;;;;;8.20;6.10;;;17.80;99.90;;;;;;5077577;28;20028;-70
2022/06/21 07:17:29;;;;;;;13.88;6.57;;;17.80;99.90;;;;;;5077547;28;20090;-71
2022/06/21 07:19:55;;;;;;;8.45;5.95;;;18.10;99.90;;;;;;5077566;28;20037;-71
2022/06/21 07:22:27;;;;;;;10.05;5.90;;;18.50;99.90;;;;;;5076644;28;20067;-71
2022/06/21 07:25:11;;;;;;;12.23;6.00;;;18.40;99.90;;;;;;5077373;28;20036;-71
2022/06/21 07:27:41;;;;;;;9.13;6.88;;;18.40;99.90;;;;;;5076785;28;20059;-70
2022/06/21 07:30:11;;;;;;;9.70;5.93;;;18.20;99.90;;;;;;5076488;28;20337;-70
2022/06/21 07:32:56;;;;;;;9.82;6.07;;;18.10;99.90;;;;;;5077203;28;20024;-70
2022/06/21 07:35:48;;;;;;;8.80;6.45;;;18.30;99.90;;;;;;5077257;28;20035;-71
2022/06/21 07:38:47;;;;;;;9.95;6.47;;;17.90;99.90;;;;;;5075809;28;20140;-70
2022/06/21 07:41:51;;;;;;;10.02;6.22;;;18.40;99.90;;;;;;5077051;28;20071;-70
2022/06/21 07:44:34;;;;;;;9.15;5.97;;;18.70;99.90;;;;;;5055581;28;20039;-70
2022/06/21 07:47:21;;;;;;;7.15;5.22;;;19.10;99.90;;;;;;5075460;28;20047;-71
2022/06/21 07:49:59;;;;;;;9.13;5.55;;;19.20;99.90;;;;;;5077178;28;20107;-70
2022/06/21 07:52:33;;;;;;;10.20;5.10;;;19.30;99.90;;;;;;5077073;28;20029;-71
2022/06/21 07:55:05;;;;;;;7.43;5.10;;;19.40;99.90;;;;;;5076327;28;20274;-71
2022/06/21 07:57:44;;;;;;;6.78;4.47;;;19.60;99.90;;;;;;5076255;28;20115;-71
2022/06/21 08:00:16;;;;;;;7.93;4.72;;;19.90;99.90;;;;;;5076387;28;20170;-71
2022/06/21 08:08:44;;;;;;;7.22;4.80;;;20.70;99.90;;;;;;5077509;28;20373;-70
2022/06/21 08:11:18;;;;;;;7.72;4.80;;;20.60;99.90;;;;;;5076220;28;20081;-71
2022/06/21 08:13:45;;;;;;;7.68;4.57;;;20.70;99.90;;;;;;5076341;28;20068;-71
2022/06/21 08:16:15;;;;;;;7.38;4.57;;;21.00;99.90;;;;;;5076035;28;20025;-70
2022/06/21 08:19:07;;;;;;;12.55;3.92;;;21.30;99.90;;;;;;5076769;28;20120;-71
2022/06/21 08:21:48;;;;;;;10.80;4.50;;;21.10;99.90;;;;;;5076834;28;20033;-70
2022/06/21 08:24:31;;;;;;;4.95;3.83;;;21.20;99.90;;;;;;5076690;28;20036;-70
2022/06/21 08:26:56;;;;;;;6.40;3.67;;;21.40;99.90;;;;;;5076660;28;20020;-70
2022/06/21 08:29:34;;;;;;;6.13;3.83;;;20.90;99.90;;;;;;5076729;28;20517;-72
2022/06/21 08:32:15;;;;;;;6.90;4.10;;;20.50;99.90;;;;;;5076752;28;20043;-70
2022/06/21 08:34:49;;;;;;;7.88;4.40;;;20.50;99.90;;;;;;5077078;28;20318;-70
2022/06/21 08:37:24;;;;;;;8.07;4.10;;;20.70;99.90;;;;;;5076047;28;20052;-70
2022/06/21 08:39:55;;;;;;;8.23;4.35;;;21.20;99.90;;;;;;5076401;28;20031;-72
2022/06/21 08:42:45;;;;;;;13.73;4.90;;;21.50;99.90;;;;;;5076601;28;20025;-71
2022/06/21 08:48:01;;;;;;;5.68;4.22;;;21.70;99.90;;;;;;5076540;28;20059;-70
2022/06/21 08:50:42;;;;;;;7.13;4.28;;;21.80;99.90;;;;;;5076416;28;20028;-71
2022/06/21 08:53:35;;;;;;;9.55;4.30;;;21.70;99.90;;;;;;5075922;28;20316;-71
2022/06/21 08:56:22;;;;;;;8.60;4.10;;;22.00;99.90;;;;;;5076629;28;20025;-71
2022/06/21 08:58:57;;;;;;;5.95;4.10;;;22.20;99.90;;;;;;5076353;28;20028;-71
2022/06/21 09:01:32;;;;;;;5.82;4.03;;;22.20;99.90;;;;;;5076222;28;20036;-71
2022/06/21 09:04:34;;;;;;;6.20;3.60;;;21.70;99.90;;;;;;5076888;28;20036;-71
2022/06/21 09:07:00;;;;;;;6.57;3.50;;;21.80;99.90;;;;;;5076295;28;20032;-70
2022/06/21 09:09:58;;;;;;;7.38;4.00;;;22.40;99.90;;;;;;5076351;28;20072;-71
2022/06/21 09:12:47;;;;;;;6.38;3.60;;;22.60;99.90;;;;;;5077651;28;20064;-71
2022/06/21 09:15:22;;;;;;;4.55;3.60;;;22.50;99.90;;;;;;5080268;28;20044;-71
2022/06/21 09:17:56;;;;;;;5.68;3.67;;;22.50;99.90;;;;;;5079072;28;20032;-72
2022/06/21 09:20:48;;;;;;;8.90;4.10;;;22.70;99.90;;;;;;5079105;28;20056;-72
2022/06/21 09:23:34;;;;;;;8.45;3.92;;;22.60;99.90;;;;;;5079893;28;20044;-70
2022/06/21 09:26:15;;;;;;;4.20;3.40;;;22.50;99.90;;;;;;5079670;28;20052;-71
2022/06/21 09:28:48;;;;;;;7.45;4.00;;;22.30;99.90;;;;;;5080476;28;20443;-72
2022/06/21 09:31:53;;;;;;;12.73;4.15;;;21.60;99.90;;;;;;5079775;28;20025;-72
2022/06/21 09:34:56;;;;;;;8.93;3.10;;;21.60;99.90;;;;;;5071738;28;20040;-72
2022/06/21 09:37:29;;;;;;;;;;;21.90;99.90;;;;;;5079747;28;20046;-70
2022/06/21 09:40:07;;;;;;;6.07;3.15;;;21.90;99.90;;;;;;5078816;28;20299;-73
2022/06/21 09:42:47;;;;;;;6.03;3.40;;;21.80;99.90;;;;;;5079562;28;20333;-71
2022/06/21 09:45:45;;;;;;;5.35;3.28;;;21.90;99.90;;;;;;5079814;28;20101;-72
2022/06/21 09:48:38;;;;;;;6.20;3.33;;;21.90;99.90;;;;;;5079337;28;20085;-69
2022/06/21 09:51:14;;;;;;;6.07;3.20;;;22.10;99.90;;;;;;5079393;28;20034;-70
2022/06/21 09:54:06;;;;;;;4.88;3.10;;;22.20;99.90;;;;;;5079528;28;20392;-70
2022/06/21 09:56:31;;;;;;;7.97;3.50;;;22.30;99.90;;;;;;5079200;28;20090;-70
2022/06/21 09:59:12;;;;;;;5.93;3.13;;;22.40;99.90;;;;;;5078439;28;20024;-72
2022/06/21 10:01:49;;;;;;;4.05;2.40;;;22.20;99.90;;;;;;5078378;28;20089;-71
2022/06/21 10:04:36;;;;;;;5.05;2.80;;;22.30;99.90;;;;;;5078775;28;20028;-71
2022/06/21 10:07:08;;;;;;;6.80;3.10;;;22.00;99.90;;;;;;5080027;28;20392;-71
2022/06/21 10:10:09;;;;;;;8.02;2.72;;;21.70;99.90;;;;;;5078686;28;20123;-71
2022/06/21 10:12:59;;;;;;;6.50;2.83;;;21.60;99.90;;;;;;5079118;28;20082;-71
2022/06/21 10:15:31;;;;;;;7.78;3.10;;;21.40;99.90;;;;;;5079294;28;20170;-70
2022/06/21 10:18:47;;;;;;;8.27;3.15;;;21.50;99.90;;;;;;5078901;28;20036;-72
2022/06/21 10:21:39;;;;;;;3.83;2.20;;;21.60;99.90;;;;;;5040553;28;20102;-72
2022/06/21 10:24:29;;;;;;;5.97;2.72;;;21.70;99.90;;;;;;5056573;28;20327;-71
2022/06/21 10:27:13;;;;;;;4.22;2.58;;;21.70;99.90;;;;;;5074983;28;20304;-71
2022/06/21 10:30:01;;;;;;;4.88;2.78;;;22.00;99.90;;;;;;5078815;28;20085;-70
2022/06/21 10:32:34;;;;;;;6.10;2.60;;;22.40;99.90;;;;;;5078783;28;20039;-71
2022/06/21 10:35:34;;;;;;;4.82;2.92;;;22.60;99.90;;;;;;5078815;28;20101;-70
2022/06/21 10:38:22;;;;;;;5.97;2.92;;;23.00;99.90;;;;;;5078229;28;20063;-71
2022/06/21 10:40:58;;;;;;;5.50;2.80;;;23.10;99.90;;;;;;5078564;28;20033;-71
2022/06/21 10:43:42;;;;;;;5.70;3.20;;;23.20;99.90;;;;;;5078944;28;20036;-72
2022/06/21 10:46:26;;;;;;;6.25;3.70;;;23.40;99.90;;;;;;5077802;28;20040;-70
2022/06/21 10:49:32;;;;;;;8.90;4.00;;;23.70;99.90;;;;;;5078946;28;20111;-70
2022/06/21 10:52:16;;;;;;;5.68;3.20;;;23.70;99.90;;;;;;5078410;28;20028;-70
2022/06/21 10:54:42;;;;;;;4.30;2.85;;;23.40;99.90;;;;;;5078896;28;20032;-70
2022/06/21 10:57:34;;;;;;;6.97;2.72;;;23.30;99.90;;;;;;5077512;28;20116;-70
2022/06/21 11:03:31;;;;;;;4.40;2.83;;;23.30;99.90;;;;;;5077759;28;20029;-71
2022/06/21 11:06:09;;;;;;;4.07;2.45;;;23.60;99.90;;;;;;5077667;28;20028;-70
2022/06/21 11:08:48;;;;;;;4.93;3.03;;;23.40;99.90;;;;;;5077919;28;20265;-71
2022/06/21 11:11:16;;;;;;;6.38;3.10;;;23.40;99.90;;;;;;5077303;28;20380;-66
2022/06/21 11:14:11;;;;;;;5.10;3.10;;;23.30;99.90;;;;;;5077699;28;20024;-70
2022/06/21 11:17:00;;;;;;;7.55;3.05;;;23.90;99.90;;;;;;5073229;28;20055;-70
2022/06/21 11:20:01;;;;;;;5.55;2.70;;;23.70;99.90;;;;;;5077717;28;20295;-70
2022/06/21 11:22:33;;;;;;;4.68;2.30;;;23.50;99.90;;;;;;5077129;28;20296;-70
2022/06/21 11:25:21;;;;;;;3.22;2.25;;;23.50;99.90;;;;;;5077599;28;20116;-70
2022/06/21 11:27:52;;;;;;;5.05;2.83;;;23.30;99.90;;;;;;5060075;28;20028;-71
2022/06/21 11:30:27;;;;;;;7.07;2.67;;;23.10;99.90;;;;;;5076811;28;20021;-70
2022/06/21 11:33:45;;;;;;;5.95;2.67;;;23.20;99.90;;;;;;5076749;28;20028;-71
2022/06/21 11:36:23;;;;;;;4.85;2.60;;;23.10;99.90;;;;;;5065399;28;20344;-71
2022/06/21 11:39:16;;;;;;;6.93;2.45;;;23.30;99.90;;;;;;5077304;28;20097;-71
2022/06/21 11:42:24;;;;;;;6.32;2.53;;;23.30;99.90;;;;;;5077265;28;20327;-71
2022/06/21 11:45:18;;;;;;;8.10;2.47;;;23.30;99.90;;;;;;5077144;28;20029;-71
2022/06/21 11:48:09;;;;;;;5.00;2.65;;;23.60;99.90;;;;;;5077215;28;20039;-70
2022/06/21 11:50:53;;;;;;;4.40;2.95;;;23.70;99.90;;;;;;5077181;28;20037;-69
2022/06/21 11:53:25;;;;;;;3.88;2.95;;;23.60;99.90;;;;;;5076429;28;20346;-70
2022/06/21 11:56:04;;;;;;;4.82;2.55;;;23.30;99.90;;;;;;5077221;28;20033;-70
2022/06/21 11:58:48;;;;;;;5.07;2.42;;;23.20;99.90;;;;;;5077639;28;20032;-71
2022/06/21 12:01:34;;;;;;;7.72;3.70;;;22.90;99.90;;;;;;5076921;28;20040;-70
2022/06/21 12:04:15;;;;;;;11.30;3.45;;;23.10;99.90;;;;;;5076937;28;20290;-70
2022/06/21 12:06:59;;;;;;;6.07;3.00;;;23.10;99.90;;;;;;5076250;28;20036;-71
2022/06/21 12:10:17;;;;;;;10.73;3.03;;;22.90;99.90;;;;;;5077441;28;20032;-70
2022/06/21 12:13:28;;;;;;;4.45;2.97;;;22.80;99.90;;;;;;5055309;28;20186;-70
2022/06/21 12:16:26;;;;;;;5.78;2.63;;;22.60;99.90;;;;;;5040196;28;20041;-71
2022/06/21 12:18:57;;;;;;;7.07;2.92;;;22.50;99.90;;;;;;5074247;28;20086;-70
2022/06/21 12:21:29;;;;;;;6.82;2.90;;;22.40;99.90;;;;;;5076760;28;20028;-70
2022/06/21 12:23:58;;;;;;;5.00;3.20;;;22.40;99.90;;;;;;5076888;28;20024;-71
2022/06/21 12:26:26;;;;;;;4.30;2.90;;;22.10;99.90;;;;;;5076531;28;20032;-69
2022/06/21 12:28:57;;;;;;;6.80;3.15;;;22.10;99.90;;;;;;5076561;28;20363;-70
2022/06/21 12:31:56;;;;;;;5.35;2.78;;;22.30;99.90;;;;;;5076611;28;20029;-71
2022/06/21 12:34:41;;;;;;;3.78;2.97;;;22.50;99.90;;;;;;5076758;28;20036;-71
2022/06/21 12:37:17;;;;;;;5.93;3.13;;;22.40;99.90;;;;;;5075649;28;20320;-69
2022/06/21 12:40:18;;;;;;;7.53;3.05;;;22.30;99.90;;;;;;5076682;28;20075;-70
2022/06/21 12:42:54;;;;;;;7.90;3.63;;;22.30;99.90;;;;;;5075036;28;20113;-69
2022/06/21 12:45:30;;;;;;;6.82;3.65;;;22.10;99.90;;;;;;5076944;28;20315;-70
2022/06/21 12:48:34;;;;;;;10.07;3.70;;;21.80;99.90;;;;;;5080577;28;20020;-71
2022/06/21 12:51:18;;;;;;;8.90;3.47;;;21.80;99.90;;;;;;5079882;28;20063;-70
2022/06/21 12:54:08;;;;;;;5.95;3.80;;;22.00;99.90;;;;;;5081053;28;20359;-72
2022/06/21 12:56:59;;;;;;;5.82;3.58;;;22.10;99.90;;;;;;5080129;28;20071;-71
2022/06/21 12:59:35;;;;;;;9.15;3.33;;;22.10;99.90;;;;;;5080340;28;20020;-70
2022/06/21 13:02:32;;;;;;;6.97;3.30;;;22.30;99.90;;;;;;5079519;28;20025;-71
2022/06/21 13:05:16;;;;;;;6.45;3.17;;;22.40;99.90;;;;;;5079097;28;20032;-70
2022/06/21 13:08:20;;;;;;;7.07;3.72;;;22.50;99.90;;;;;;5079985;28;20031;-70
2022/06/21 13:11:01;;;;;;;7.63;3.47;;;22.80;99.90;;;;;;5079928;28;20043;-71
2022/06/21 13:13:37;;;;;;;7.57;3.70;;;22.80;99.90;;;;;;5080535;28;20025;-70
2022/06/21 13:16:18;;;;;;;5.07;3.00;;;22.60;99.90;;;;;;5080030;28;20055;-70
2022/06/21 13:18:58;;;;;;;6.43;3.17;;;22.50;99.90;;;;;;5079587;28;20036;-70
2022/06/21 13:21:36;;;;;;;6.32;3.25;;;22.70;99.90;;;;;;5079974;28;20036;-72
2022/06/21 13:24:26;;;;;;;5.03;3.03;;;22.80;99.90;;;;;;5080372;28;20024;-70
2022/06/21 13:27:05;;;;;;;5.65;2.67;;;22.90;99.90;;;;;;5079664;28;20031;-71
2022/06/21 13:30:10;;;;;;;7.70;2.67;;;22.60;99.90;;;;;;5079919;28;20055;-69
2022/06/21 13:32:52;;;;;;;3.97;2.15;;;22.70;99.90;;;;;;5079380;28;20036;-69
2022/06/21 13:35:24;;;;;;;7.55;2.50;;;22.40;99.90;;;;;;5062533;28;20349;-68
2022/06/21 13:38:04;;;;;;;5.93;2.33;;;22.30;99.90;;;;;;5079418;28;20313;-69
2022/06/21 13:40:43;;;;;;;4.80;2.90;;;22.30;99.90;;;;;;5079421;28;20040;-69
2022/06/21 13:43:14;;;;;;;5.22;2.78;;;22.60;99.90;;;;;;5079335;28;20028;-69
2022/06/21 13:46:01;;;;;;;5.95;3.03;;;22.80;99.90;;;;;;5079858;28;20094;-69
2022/06/21 13:48:43;;;;;;;4.55;2.42;;;22.80;99.90;;;;;;5079128;28;20029;-69
2022/06/21 13:51:15;;;;;;;3.25;2.30;;;22.90;99.90;;;;;;5079516;28;20040;-69
2022/06/21 13:53:44;;;;;;;6.20;2.65;;;23.20;99.90;;;;;;5079635;28;20042;-69
2022/06/21 13:56:29;;;;;;;4.38;2.25;;;23.30;99.90;;;;;;5078776;28;20029;-66